Time;durP1;ratioP1;P1;durP2;ratioP2;P2;SDS_P1;SDS_P2;PMS_P1;PMS_P2;Temp;Humidity;BMP_temperature;BMP_pressure;BME280_temperature;BME280_humidity;BME280_pressure;Samples;Min_cycle;Max_cycle;Signal;HPM_P1;HPM_P2
2021/11/04 06:37:26;;;;;;;61.48;33.18;;;;;;;10.11;100.00;100999.60;1832223;76;22241;-75
2021/11/04 06:40:32;;;;;;;68.33;35.90;;;;;;;10.09;100.00;100990.72;1828099;76;21146;-75
2021/11/04 06:43:38;;;;;;;69.65;34.13;;;;;;;10.12;100.00;100980.84;1766958;79;21383;-76
2021/11/04 06:46:44;;;;;;;65.95;35.17;;;;;;;10.13;100.00;100979.83;1826554;76;21470;-76
2021/11/04 06:49:52;;;;;;;66.80;34.58;;;;;;;10.16;100.00;100981.74;1818839;77;21186;-75
2021/11/04 06:53:17;;;;;;;64.00;35.70;;;;;;;10.19;100.00;100986.02;1827922;77;21875;-76
2021/11/04 06:56:22;;;;;;;67.17;35.55;;;;;;;10.21;100.00;100978.54;1824794;77;21178;-75
2021/11/04 06:59:32;;;;;;;61.88;35.63;;;;;;;10.26;100.00;100987.16;1812718;77;21678;-75
2021/11/04 07:02:46;;;;;;;55.90;33.15;;;;;;;10.31;100.00;100994.38;1805329;78;21304;-75
2021/11/04 07:06:10;;;;;;;67.78;38.67;;;;;;;10.36;100.00;100982.45;1800919;77;21193;-75
2021/11/04 07:09:17;;;;;;;62.35;34.88;;;;;;;10.39;100.00;100981.25;1803900;78;21303;-75
2021/11/04 07:12:23;;;;;;;99.75;50.95;;;;;;;10.41;100.00;100974.62;1810465;78;21174;-76
2021/11/04 07:15:31;;;;;;;91.17;48.60;;;;;;;10.41;100.00;100973.77;1808057;78;21180;-75
2021/11/04 07:18:38;;;;;;;100.33;50.98;;;;;;;10.42;100.00;100980.95;1809389;78;21287;-75
2021/11/04 07:21:48;;;;;;;113.12;59.65;;;;;;;10.45;100.00;100984.74;1811138;78;21248;-75
2021/11/04 07:25:00;;;;;;;82.15;43.65;;;;;;;10.49;100.00;100988.38;1802021;77;21201;-75
2021/11/04 07:28:21;;;;;;;76.05;41.83;;;;;;;10.55;100.00;100981.91;1809020;78;21854;-75
2021/11/04 07:31:26;;;;;;;62.40;38.13;;;;;;;10.59;100.00;100983.31;1803219;78;21559;-75
2021/11/04 07:34:32;;;;;;;65.37;37.17;;;;;;;10.65;100.00;100974.45;1800707;78;21232;-76
2021/11/04 07:37:39;;;;;;;74.07;42.35;;;;;;;10.69;100.00;100981.33;1811961;78;21283;-75
2021/11/04 07:40:44;;;;;;;65.65;36.50;;;;;;;10.70;100.00;100972.94;1803236;78;21145;-76
2021/11/04 07:43:49;;;;;;;63.87;36.88;;;;;;;10.71;100.00;100972.43;1809611;78;21901;-76
2021/11/04 07:46:55;;;;;;;50.08;28.73;;;;;;;10.69;100.00;100978.08;1807956;78;21564;-75
2021/11/04 07:50:01;;;;;;;50.98;28.17;;;;;;;10.69;100.00;100978.59;1803024;77;21462;-75
2021/11/04 07:53:07;;;;;;;50.88;29.45;;;;;;;10.70;100.00;100974.83;1814690;78;21204;-75
2021/11/04 07:56:13;;;;;;;75.12;36.68;;;;;;;10.67;100.00;100968.30;1804654;78;21335;-75
2021/11/04 07:59:20;;;;;;;73.57;34.98;;;;;;;10.69;100.00;100965.77;1738013;80;21217;-75
2021/11/04 08:02:25;;;;;;;61.05;33.15;;;;;;;10.71;100.00;100965.08;1744128;81;21297;-75
2021/11/04 08:05:30;;;;;;;52.23;30.37;;;;;;;10.71;100.00;100966.95;1732782;81;21333;-75
2021/11/04 08:08:36;;;;;;;59.15;31.37;;;;;;;10.68;100.00;100964.53;1742751;81;21329;-75
2021/11/04 08:11:42;;;;;;;79.12;39.67;;;;;;;10.64;100.00;100967.27;1744181;81;21350;-75
2021/11/04 08:14:48;;;;;;;92.50;42.75;;;;;;;10.64;100.00;100971.38;1743604;81;21252;-75
2021/11/04 08:17:54;;;;;;;59.77;31.57;;;;;;;10.62;100.00;100978.35;1808059;78;21341;-75
2021/11/04 08:21:00;;;;;;;43.50;23.47;;;;;;;10.60;100.00;100986.39;1803446;78;21271;-75
2021/11/04 08:24:05;;;;;;;32.40;21.30;;;;;;;10.60;100.00;101000.06;1805406;78;21783;-75
2021/11/04 08:27:11;;;;;;;32.00;19.85;;;;;;;10.58;100.00;101001.57;1808873;78;21805;-76
2021/11/04 08:30:17;;;;;;;37.58;22.70;;;;;;;10.59;100.00;101008.78;1780270;78;21326;-76
2021/11/04 08:33:23;;;;;;;30.57;19.05;;;;;;;10.57;100.00;101014.05;1811110;78;21283;-75
2021/11/04 08:36:29;;;;;;;37.65;22.10;;;;;;;10.56;100.00;101016.44;1808661;78;21525;-75
2021/11/04 08:39:35;;;;;;;31.97;20.95;;;;;;;10.60;100.00;101024.69;1802898;78;21303;-75
2021/11/04 08:42:41;;;;;;;36.15;23.18;;;;;;;10.63;100.00;101032.55;1800223;78;21323;-75
2021/11/04 08:45:46;;;;;;;37.35;21.70;;;;;;;10.65;100.00;101023.70;1734416;81;21176;-75
2021/11/04 08:48:51;;;;;;;33.13;19.00;;;;;;;10.67;100.00;101021.65;1743111;81;21932;-75
2021/11/04 08:51:56;;;;;;;36.10;20.90;;;;;;;10.67;100.00;101018.91;1742491;81;21595;-75
2021/11/04 08:55:01;;;;;;;31.52;19.55;;;;;;;10.68;100.00;101009.67;1808396;78;21815;-75
2021/11/04 08:58:06;;;;;;;41.08;24.00;;;;;;;10.66;100.00;101011.73;1739797;82;21371;-75
2021/11/04 09:01:15;;;;;;;46.63;25.23;;;;;;;10.63;100.00;101014.30;1809061;78;21247;-75
2021/11/04 09:04:22;;;;;;;34.23;19.52;;;;;;;10.64;100.00;101020.62;1810736;78;21205;-75
2021/11/04 09:07:29;;;;;;;36.90;20.80;;;;;;;10.66;100.00;101022.67;1813058;78;21257;-75
2021/11/04 09:10:34;;;;;;;43.13;22.93;;;;;;;10.67;100.00;101023.02;1809912;78;21377;-75
2021/11/04 09:13:39;;;;;;;42.93;24.02;;;;;;;10.73;100.00;101016.92;1804786;78;21354;-76
2021/11/04 09:16:45;;;;;;;45.33;24.80;;;;;;;10.73;100.00;101016.92;1800374;78;21210;-75
2021/11/04 09:19:51;;;;;;;34.90;20.85;;;;;;;10.71;100.00;101017.58;1805862;77;21161;-76
2021/11/04 09:22:56;;;;;;;39.92;22.07;;;;;;;10.69;100.00;101021.00;1802867;78;21313;-76
2021/11/04 09:26:00;;;;;;;47.23;25.65;;;;;;;10.66;100.00;101013.09;1804397;78;21463;-76
2021/11/04 09:29:07;;;;;;;42.88;24.57;;;;;;;10.62;100.00;101014.43;1798515;77;21347;-76
2021/11/04 09:32:15;;;;;;;35.28;21.02;;;;;;;10.60;100.00;101020.58;1813296;78;21515;-76
2021/11/04 09:35:23;;;;;;;53.15;28.65;;;;;;;10.59;100.00;101023.83;1812428;78;21622;-76
2021/11/04 09:38:28;;;;;;;50.83;26.23;;;;;;;10.56;100.00;101011.83;1804624;78;22370;-76
2021/11/04 09:41:33;;;;;;;46.53;26.05;;;;;;;10.55;100.00;101011.48;1803767;78;21337;-76
2021/11/04 09:44:38;;;;;;;40.05;22.60;;;;;;;10.55;100.00;101004.64;1803626;78;21299;-76
2021/11/04 09:47:44;;;;;;;47.13;25.68;;;;;;;10.53;100.00;101010.77;1804526;77;21307;-76
2021/11/04 09:50:50;;;;;;;44.33;26.68;;;;;;;10.46;100.00;101006.45;1806367;78;21307;-76
2021/11/04 09:53:56;;;;;;;40.20;23.25;;;;;;;10.44;100.00;101008.98;1805894;78;21153;-76
2021/11/04 09:57:01;;;;;;;42.00;24.57;;;;;;;10.45;100.00;101015.69;1801153;78;21606;-76
2021/11/04 10:00:06;;;;;;;41.95;25.17;;;;;;;10.49;100.00;101014.36;1802667;78;21161;-76
2021/11/04 10:03:17;;;;;;;48.20;27.65;;;;;;;10.54;100.00;101007.52;1802222;78;21286;-76
2021/11/04 10:06:39;;;;;;;56.28;30.35;;;;;;;10.57;100.00;101012.17;1806093;78;21307;-76
2021/11/04 10:09:45;;;;;;;42.95;25.32;;;;;;;10.61;100.00;101005.37;1803310;78;21346;-75
2021/11/04 10:13:14;;;;;;;40.43;24.85;;;;;;;10.64;100.00;101002.33;1803825;78;21645;-75
2021/11/04 10:16:20;;;;;;;46.58;26.70;;;;;;;10.67;100.00;100999.76;1799928;78;21216;-75
2021/11/04 10:19:26;;;;;;;44.00;27.50;;;;;;;10.71;100.00;100997.05;1808708;78;21482;-76
2021/11/04 10:22:32;;;;;;;46.33;25.77;;;;;;;10.76;100.00;101000.16;1799929;76;21391;-75
2021/11/04 10:25:38;;;;;;;47.33;27.93;;;;;;;10.82;100.00;100994.55;1733432;81;21349;-75
2021/11/04 10:28:44;;;;;;;46.05;26.27;;;;;;;10.85;100.00;100996.46;1810731;78;21394;-75
2021/11/04 10:31:56;;;;;;;44.15;25.90;;;;;;;10.92;100.00;101003.02;1800980;78;21701;-75
2021/11/04 10:35:01;;;;;;;52.08;29.90;;;;;;;11.02;100.00;101003.42;1807789;78;21350;-75
2021/11/04 10:38:08;;;;;;;41.45;27.10;;;;;;;11.14;100.00;101004.84;1766909;78;21228;-76
2021/11/04 10:41:17;;;;;;;44.00;26.85;;;;;;;11.23;100.00;101005.23;1800256;78;21318;-75
2021/11/04 10:44:23;;;;;;;43.55;26.87;;;;;;;11.30;100.00;101006.30;1797957;78;21619;-75
2021/11/04 10:47:28;;;;;;;46.00;27.95;;;;;;;11.31;100.00;101004.42;1808334;78;21832;-75
2021/11/04 10:50:48;;;;;;;46.15;28.07;;;;;;;11.28;100.00;100995.16;1812353;78;21374;-75
2021/11/04 10:54:22;;;;;;;53.83;31.23;;;;;;;11.25;100.00;100999.95;1797394;78;21863;-75
2021/11/04 10:57:47;;;;;;;52.55;31.62;;;;;;;11.16;100.00;100995.45;1804310;77;21300;-75
2021/11/04 11:00:53;;;;;;;49.73;28.80;;;;;;;11.09;100.00;101003.95;1811880;78;21372;-75
2021/11/04 11:04:14;;;;;;;51.48;29.95;;;;;;;11.03;100.00;101007.87;1731689;81;21377;-76
2021/11/04 11:07:18;;;;;;;53.75;29.65;;;;;;;10.97;100.00;100999.29;1808885;78;21319;-75
2021/11/04 11:10:24;;;;;;;53.35;29.42;;;;;;;10.90;100.00;100988.63;1809313;78;21272;-75
2021/11/04 11:13:28;;;;;;;60.05;30.55;;;;;;;10.87;100.00;100987.60;1806106;77;21271;-75
2021/11/04 11:16:35;;;;;;;56.10;31.02;;;;;;;10.89;100.00;100982.81;1809928;78;21287;-76
2021/11/04 11:19:50;;;;;;;49.23;27.95;;;;;;;10.93;100.00;100986.09;1800628;78;21208;-75
2021/11/04 11:22:56;;;;;;;65.35;35.08;;;;;;;10.99;100.00;100978.59;1802561;78;21311;-75
2021/11/04 11:26:07;;;;;;;57.85;30.77;;;;;;;11.00;100.00;100987.99;1799693;78;21294;-75
2021/11/04 11:29:13;;;;;;;55.48;32.65;;;;;;;10.98;100.00;100992.78;1808673;78;22021;-76
2021/11/04 11:32:35;;;;;;;56.10;32.17;;;;;;;10.92;100.00;100994.81;1807250;78;22593;-75
2021/11/04 11:35:42;;;;;;;52.03;30.35;;;;;;;10.85;100.00;100978.67;1809109;78;21259;-76
2021/11/04 11:39:10;;;;;;;51.92;29.20;;;;;;;10.84;100.00;100982.44;1800507;78;21272;-76
2021/11/04 11:42:17;;;;;;;63.95;34.83;;;;;;;10.83;100.00;100972.52;1808137;76;21276;-76
2021/11/04 11:45:22;;;;;;;55.05;31.15;;;;;;;10.81;100.00;100973.17;1817045;78;21674;-76
2021/11/04 11:48:32;;;;;;;48.73;30.00;;;;;;;10.81;100.00;100978.65;1798742;78;21791;-76
2021/11/04 11:51:54;;;;;;;35.80;23.25;;;;;;;10.85;100.00;100984.15;1810326;78;21665;-76
2021/11/04 11:55:12;;;;;;;41.30;25.82;;;;;;;10.91;100.00;100975.28;1809534;77;21751;-76
2021/11/04 11:58:27;;;;;;;43.65;26.00;;;;;;;10.99;100.00;100973.97;1815537;78;21871;-76
2021/11/04 12:01:46;;;;;;;33.25;22.73;;;;;;;11.07;100.00;100975.05;1808313;78;21241;-76
2021/11/04 12:04:53;;;;;;;35.35;24.23;;;;;;;11.14;100.00;100974.72;1741467;78;21177;-75
2021/11/04 12:08:22;;;;;;;33.80;22.75;;;;;;;11.19;100.00;100981.41;1811059;78;21174;-75
2021/11/04 12:11:50;;;;;;;34.38;21.68;;;;;;;11.25;100.00;100970.34;1817334;78;21382;-75
2021/11/04 12:15:08;;;;;;;41.40;25.75;;;;;;;11.29;100.00;100968.96;1793423;79;21331;-75
2021/11/04 12:18:24;;;;;;;36.20;23.98;;;;;;;11.29;100.00;100971.70;1813486;77;21804;-75
2021/11/04 12:21:37;;;;;;;33.85;23.32;;;;;;;11.25;100.00;100967.60;1821400;78;21258;-76
2021/11/04 12:24:43;;;;;;;34.20;22.60;;;;;;;11.21;100.00;100968.95;1810014;78;21290;-77
2021/11/04 12:27:50;;;;;;;37.28;24.50;;;;;;;11.16;100.00;100965.85;1784292;78;21322;-76
2021/11/04 12:30:55;;;;;;;30.10;21.37;;;;;;;11.17;100.00;100970.30;1809170;78;21311;-76
2021/11/04 12:34:04;;;;;;;32.42;23.70;;;;;;;11.21;100.00;100974.42;1811613;78;21319;-76
2021/11/04 12:37:21;;;;;;;36.53;23.77;;;;;;;11.25;100.00;100975.30;1810495;77;21326;-76
2021/11/04 12:40:26;;;;;;;31.25;21.75;;;;;;;11.29;100.00;100973.06;1815393;78;21383;-76
2021/11/04 12:43:35;;;;;;;33.88;24.25;;;;;;;11.32;100.00;100972.75;1758850;78;21283;-76
2021/11/04 12:46:48;;;;;;;35.28;22.75;;;;;;;11.34;100.00;100969.36;1760606;78;21288;-76
2021/11/04 12:49:57;;;;;;;33.65;21.70;;;;;;;11.35;100.00;100977.91;1769011;78;21198;-76
2021/11/04 12:53:11;;;;;;;34.63;23.15;;;;;;;11.34;100.00;100983.05;1740429;79;21748;-76
2021/11/04 12:56:18;;;;;;;30.60;21.02;;;;;;;11.33;100.00;100980.45;1747890;80;21204;-76
2021/11/04 12:59:44;;;;;;;34.78;23.55;;;;;;;11.30;100.00;100965.73;1812154;78;21335;-76
2021/11/04 13:02:51;;;;;;;35.75;23.57;;;;;;;11.30;100.00;100966.59;1813633;78;21345;-76
2021/11/04 13:05:57;;;;;;;35.33;24.35;;;;;;;11.31;100.00;100968.30;1800395;79;21191;-76
2021/11/04 13:09:11;;;;;;;35.35;24.20;;;;;;;11.32;100.00;100968.64;1791407;79;21903;-76
2021/11/04 13:12:22;;;;;;;38.35;24.27;;;;;;;11.29;100.00;100964.85;1798568;78;21211;-76
2021/11/04 13:15:33;;;;;;;34.53;23.95;;;;;;;11.27;100.00;100969.66;1807086;78;21198;-76
2021/11/04 13:18:38;;;;;;;54.05;28.65;;;;;;;11.27;100.00;100968.28;1809349;78;21890;-76
2021/11/04 13:21:45;;;;;;;41.58;27.15;;;;;;;11.23;100.00;100971.86;1805112;78;21852;-76
2021/11/04 13:24:50;;;;;;;37.93;25.30;;;;;;;11.17;100.00;100973.89;1813064;78;21681;-76
2021/11/04 13:28:03;;;;;;;38.02;25.88;;;;;;;11.14;100.00;100972.84;1790893;80;21312;-76
2021/11/04 13:31:22;;;;;;;40.08;24.92;;;;;;;11.11;100.00;100973.70;1794746;78;21315;-76
2021/11/04 13:34:27;;;;;;;41.68;27.82;;;;;;;11.06;100.00;100968.72;1823626;78;21730;-76
2021/11/04 13:37:33;;;;;;;48.48;29.05;;;;;;;11.02;100.00;100963.73;1825575;77;21899;-76
2021/11/04 13:41:11;;;;;;;44.93;28.27;;;;;;;10.97;100.00;100976.02;1823971;77;21213;-76
2021/11/04 13:44:35;;;;;;;44.10;27.73;;;;;;;10.93;100.00;100971.89;1827233;77;21739;-76
2021/11/04 13:47:43;;;;;;;50.10;29.50;;;;;;;10.90;100.00;100979.05;1816157;77;21750;-76
2021/11/04 13:50:53;;;;;;;42.80;27.05;;;;;;;10.86;100.00;100979.02;1809282;78;21263;-76
2021/11/04 13:53:59;;;;;;;42.30;27.30;;;;;;;10.83;100.00;100976.63;1820568;78;21148;-76
2021/11/04 13:57:11;;;;;;;45.88;28.83;;;;;;;10.82;100.00;100970.81;1791475;79;21390;-76
2021/11/04 14:00:20;;;;;;;45.08;29.23;;;;;;;10.81;100.00;100975.91;1791849;79;21823;-76
2021/11/04 14:03:25;;;;;;;49.60;29.63;;;;;;;10.81;100.00;100975.91;1774966;78;21271;-76
2021/11/04 14:06:30;;;;;;;55.00;31.15;;;;;;;10.79;100.00;100975.23;1796935;78;21839;-76
2021/11/04 14:09:42;;;;;;;53.95;31.35;;;;;;;10.77;100.00;100982.72;1827331;78;21805;-76
2021/11/04 14:13:00;;;;;;;54.73;31.48;;;;;;;10.73;100.00;100975.37;1824275;78;21304;-74
2021/11/04 14:16:02;;;;;;;41.70;29.25;;;;;;;10.73;100.00;100979.98;1819992;78;21975;-75
2021/11/04 14:19:14;;;;;;;58.85;34.38;;;;;;;10.71;100.00;100986.11;1823975;78;21296;-75
2021/11/04 14:22:20;;;;;;;54.48;32.05;;;;;;;10.69;100.00;100975.85;1822312;78;21261;-75
2021/11/04 14:25:27;;;;;;;54.40;34.08;;;;;;;10.69;100.00;100978.59;1825702;78;21293;-75
2021/11/04 14:28:33;;;;;;;53.28;34.08;;;;;;;10.68;100.00;100983.69;1826055;77;21302;-75
2021/11/04 14:31:39;;;;;;;53.52;33.75;;;;;;;10.67;100.00;100981.97;1826849;78;21158;-75
2021/11/04 14:34:45;;;;;;;63.05;36.48;;;;;;;10.66;100.00;100979.75;1825902;77;21192;-75
2021/11/04 14:37:51;;;;;;;60.05;35.13;;;;;;;10.65;100.00;100981.30;1826058;77;21308;-75
2021/11/04 14:40:58;;;;;;;67.15;39.80;;;;;;;10.64;100.00;100974.97;1825087;77;21146;-75
2021/11/04 14:44:04;;;;;;;67.65;39.33;;;;;;;10.64;100.00;100976.84;1826246;77;21282;-75
2021/11/04 14:47:12;;;;;;;70.80;41.02;;;;;;;10.63;100.00;100975.98;1825537;77;21303;-75
2021/11/04 14:50:19;;;;;;;68.42;39.63;;;;;;;10.64;100.00;100972.23;1824356;77;21181;-75
2021/11/04 14:53:26;;;;;;;69.85;39.90;;;;;;;10.64;100.00;100962.66;1825885;77;21300;-75
2021/11/04 14:56:32;;;;;;;66.50;40.28;;;;;;;10.64;100.00;100949.48;1822400;78;21197;-75
2021/11/04 14:59:39;;;;;;;72.80;41.90;;;;;;;10.65;100.00;100956.67;1824051;77;21825;-75
2021/11/04 15:02:46;;;;;;;68.62;38.95;;;;;;;10.65;100.00;100960.77;1795787;77;21336;-75
2021/11/04 15:05:55;;;;;;;74.60;42.38;;;;;;;10.67;100.00;100960.09;1784871;79;21225;-75
2021/11/04 15:09:02;;;;;;;63.90;39.25;;;;;;;10.66;100.00;100959.23;1793517;79;21340;-76
2021/11/04 15:12:09;;;;;;;72.00;41.08;;;;;;;10.68;100.00;100961.80;1788678;80;21232;-75
2021/11/04 15:15:15;;;;;;;63.38;37.30;;;;;;;10.67;100.00;100956.84;1789454;79;21202;-75
2021/11/04 15:18:22;;;;;;;55.60;35.63;;;;;;;10.68;100.00;100951.74;1788517;79;21362;-75
2021/11/04 15:21:28;;;;;;;65.17;37.10;;;;;;;10.70;100.00;100960.62;1797631;80;21311;-75
2021/11/04 15:24:33;;;;;;;62.78;40.73;;;;;;;10.71;100.00;100960.12;1792879;80;21855;-75
2021/11/04 15:27:39;;;;;;;57.90;38.13;;;;;;;10.73;100.00;100956.73;1786777;79;22473;-75
2021/11/04 15:30:45;;;;;;;59.10;38.65;;;;;;;10.74;100.00;100951.08;1795475;79;21308;-75
2021/11/04 15:33:51;;;;;;;62.38;38.25;;;;;;;10.76;100.00;100946.80;1785081;79;21834;-76
2021/11/04 15:36:58;;;;;;;56.60;34.83;;;;;;;10.78;100.00;100951.63;1791547;79;21312;-75
2021/11/04 15:40:08;;;;;;;58.63;37.20;;;;;;;10.81;100.00;100955.39;1786527;79;21815;-75
2021/11/04 15:43:14;;;;;;;55.23;35.50;;;;;;;10.82;100.00;100954.39;1791481;79;21197;-76
2021/11/04 15:46:20;;;;;;;53.33;34.03;;;;;;;10.84;100.00;100953.70;1787860;79;21328;-75
2021/11/04 15:49:26;;;;;;;55.23;34.75;;;;;;;10.86;100.00;100959.00;1792917;79;22544;-75
2021/11/04 15:52:31;;;;;;;51.30;32.42;;;;;;;10.88;100.00;100952.88;1797360;80;21292;-75
2021/11/04 15:55:36;;;;;;;54.77;36.15;;;;;;;10.89;100.00;100954.59;1790773;79;21300;-75
2021/11/04 15:58:41;;;;;;;57.95;34.90;;;;;;;10.90;100.00;100950.82;1789945;79;21316;-75
2021/11/04 16:01:47;;;;;;;55.88;34.73;;;;;;;10.89;100.00;100951.84;1786790;79;21264;-74
2021/11/04 16:04:53;;;;;;;54.38;35.15;;;;;;;10.90;100.00;100954.92;1788772;79;21328;-75
2021/11/04 16:07:59;;;;;;;54.70;34.38;;;;;;;10.90;100.00;100959.88;1789789;79;21914;-75
2021/11/04 16:11:06;;;;;;;49.85;32.60;;;;;;;10.90;100.00;100961.25;1798143;80;21288;-75
2021/11/04 16:14:11;;;;;;;54.88;34.58;;;;;;;10.92;100.00;100960.59;1785747;79;21296;-75
2021/11/04 16:17:17;;;;;;;64.97;38.95;;;;;;;10.94;100.00;100962.65;1789801;79;21363;-75
2021/11/04 16:20:23;;;;;;;60.12;38.20;;;;;;;10.94;100.00;100964.02;1790749;79;21812;-75
2021/11/04 16:23:32;;;;;;;65.12;38.05;;;;;;;10.96;100.00;100963.84;1789604;78;21312;-76
2021/11/04 16:26:40;;;;;;;63.68;39.03;;;;;;;10.96;100.00;100964.73;1796032;78;21184;-76
2021/11/04 16:29:51;;;;;;;67.27;39.45;;;;;;;10.98;100.00;100972.26;1710242;80;21263;-76
2021/11/04 16:32:57;;;;;;;65.12;39.05;;;;;;;10.97;100.00;100971.91;1791331;79;21323;-76
2021/11/04 16:36:02;;;;;;;61.90;38.10;;;;;;;10.96;100.00;100969.31;1791600;79;21379;-76
2021/11/04 16:39:08;;;;;;;73.80;41.92;;;;;;;10.96;100.00;100971.58;1792135;80;21694;-76
2021/11/04 16:42:14;;;;;;;74.82;42.10;;;;;;;10.94;100.00;100974.97;1789202;79;22535;-76
2021/11/04 16:45:20;;;;;;;70.28;40.12;;;;;;;10.94;100.00;100976.84;1789281;79;21843;-76
2021/11/04 16:48:26;;;;;;;66.65;40.67;;;;;;;10.93;100.00;100974.62;1797818;79;21300;-76
2021/11/04 16:51:32;;;;;;;49.77;34.05;;;;;;;10.93;100.00;100971.03;1769824;79;21286;-76
2021/11/04 16:54:37;;;;;;;52.33;33.58;;;;;;;10.93;100.00;100976.51;1788534;79;21315;-76
2021/11/04 16:57:42;;;;;;;42.80;29.05;;;;;;;10.94;100.00;100973.59;1793203;79;21212;-76
2021/11/04 17:00:48;;;;;;;50.67;32.20;;;;;;;10.97;100.00;100973.28;1792457;79;21684;-76
2021/11/04 17:03:53;;;;;;;47.20;30.77;;;;;;;11.00;100.00;100977.56;1789460;79;21220;-76
2021/11/04 17:06:59;;;;;;;51.35;35.08;;;;;;;11.02;100.00;100974.68;1797805;79;21252;-76
2021/11/04 17:10:04;;;;;;;48.23;32.23;;;;;;;11.03;100.00;100981.86;1787533;79;21196;-76
2021/11/04 17:13:10;;;;;;;49.90;32.75;;;;;;;11.04;100.00;100979.47;1794139;79;21711;-76
2021/11/04 17:16:16;;;;;;;50.58;33.85;;;;;;;11.05;100.00;100991.61;1789591;79;21837;-76
2021/11/04 17:19:21;;;;;;;54.95;36.38;;;;;;;11.04;100.00;100991.27;1791637;79;21204;-76
2021/11/04 17:22:34;;;;;;;85.28;45.88;;;;;;;11.03;100.00;100992.30;1789796;80;21874;-76
2021/11/04 17:25:36;;;;;;;94.03;50.33;;;;;;;11.01;100.00;100990.25;1808649;78;21307;-76
2021/11/04 17:28:41;;;;;;;99.77;56.48;;;;;;;10.99;100.00;100981.33;1823987;78;21319;-76
2021/11/04 17:31:47;;;;;;;97.57;51.23;;;;;;;10.96;100.00;100989.37;1818914;78;21685;-76
2021/11/04 17:34:53;;;;;;;91.78;52.30;;;;;;;10.91;100.00;100987.59;1825844;77;21954;-76
2021/11/04 17:37:59;;;;;;;99.32;54.95;;;;;;;10.90;100.00;100997.34;1824292;77;21437;-76
2021/11/04 17:41:05;;;;;;;77.58;47.38;;;;;;;10.87;100.00;100995.81;1805744;77;21338;-76
2021/11/04 17:44:12;;;;;;;79.32;44.00;;;;;;;10.85;100.00;100999.20;1830200;77;21331;-76
2021/11/04 17:47:19;;;;;;;78.85;46.83;;;;;;;10.82;100.00;101002.28;1824462;78;21284;-76
2021/11/04 17:50:25;;;;;;;84.13;45.43;;;;;;;10.80;100.00;100997.97;1827023;77;21491;-76
2021/11/04 17:53:31;;;;;;;72.80;42.85;;;;;;;10.76;100.00;100996.06;1822760;77;21257;-76
2021/11/04 17:56:35;;;;;;;72.12;42.95;;;;;;;10.72;100.00;100990.05;1823249;78;21304;-76
2021/11/04 17:59:42;;;;;;;78.50;41.63;;;;;;;10.71;100.00;100991.58;1821000;78;22586;-76
2021/11/04 18:02:49;;;;;;;72.25;41.73;;;;;;;10.69;100.00;100990.90;1820716;77;21169;-76
2021/11/04 18:05:54;;;;;;;75.45;44.53;;;;;;;10.66;100.00;100992.06;1823778;77;21364;-76
2021/11/04 18:09:02;;;;;;;77.85;44.25;;;;;;;10.66;100.00;100991.20;1820300;77;21228;-76
2021/11/04 18:12:10;;;;;;;75.15;41.28;;;;;;;10.65;100.00;100990.87;1824423;78;21221;-76
2021/11/04 18:15:16;;;;;;;72.30;42.78;;;;;;;10.63;100.00;100990.15;1823409;77;21296;-76
2021/11/04 18:18:21;;;;;;;76.42;42.67;;;;;;;10.61;100.00;100996.30;1817709;77;21342;-76
2021/11/04 18:21:28;;;;;;;76.77;42.67;;;;;;;10.58;100.00;100989.27;1821410;77;21346;-76
2021/11/04 18:24:34;;;;;;;74.47;45.50;;;;;;;10.57;100.00;100985.33;1826132;77;21181;-76
2021/11/04 18:27:39;;;;;;;66.87;40.55;;;;;;;10.56;100.00;100987.72;1822363;78;21286;-76
2021/11/04 18:30:46;;;;;;;74.72;44.85;;;;;;;10.56;100.00;100995.92;1821766;77;21304;-76
2021/11/04 18:33:53;;;;;;;77.72;45.52;;;;;;;10.54;100.00;100993.84;1821489;77;21202;-76
2021/11/04 18:37:00;;;;;;;83.85;45.85;;;;;;;10.53;100.00;101001.70;1822839;78;21346;-76
2021/11/04 18:40:06;;;;;;;72.10;44.83;;;;;;;10.50;100.00;100993.33;1823394;77;21970;-76
2021/11/04 18:43:12;;;;;;;82.42;46.50;;;;;;;10.49;100.00;101002.05;1833339;78;21316;-75
2021/11/04 18:46:18;;;;;;;86.90;50.45;;;;;;;10.48;100.00;101005.77;1824711;77;21304;-76
2021/11/04 18:49:25;;;;;;;98.00;54.25;;;;;;;10.48;100.00;101003.04;1819199;77;21189;-76
2021/11/04 18:52:31;;;;;;;96.25;54.83;;;;;;;10.48;100.00;101004.41;1826246;77;21294;-76
2021/11/04 18:55:37;;;;;;;102.78;52.13;;;;;;;10.51;100.00;101007.34;1826256;77;21823;-76
2021/11/04 18:58:43;;;;;;;108.45;60.23;;;;;;;10.56;100.00;101013.70;1822360;77;21359;-76
2021/11/04 19:01:50;;;;;;;109.78;57.03;;;;;;;10.60;100.00;101011.01;1822956;78;21200;-76
2021/11/04 19:04:57;;;;;;;107.67;59.83;;;;;;;10.64;100.00;101011.05;1822776;77;21240;-76
2021/11/04 19:08:04;;;;;;;99.80;54.10;;;;;;;10.70;100.00;101010.39;1821181;77;21198;-76
2021/11/04 19:11:11;;;;;;;97.30;53.80;;;;;;;10.74;100.00;101018.64;1822463;78;21832;-76
2021/11/04 19:14:16;;;;;;;97.88;55.12;;;;;;;10.78;100.00;101013.20;1822614;77;21296;-76
2021/11/04 19:17:21;;;;;;;97.30;55.78;;;;;;;10.81;100.00;101012.00;1822999;77;21906;-76
2021/11/04 19:20:28;;;;;;;94.83;51.55;;;;;;;10.83;100.00;101014.94;1832971;78;21268;-76
2021/11/04 19:23:34;;;;;;;90.35;53.42;;;;;;;10.84;100.00;101005.70;1818699;77;21231;-76
2021/11/04 19:26:39;;;;;;;77.53;43.60;;;;;;;10.87;100.00;101008.12;1823152;77;21328;-76
2021/11/04 19:29:46;;;;;;;73.75;44.60;;;;;;;10.91;100.00;101008.12;1824267;77;21236;-76
2021/11/04 19:32:51;;;;;;;80.55;43.75;;;;;;;10.97;100.00;101010.75;1824312;78;21844;-76
2021/11/04 19:35:57;;;;;;;69.47;41.13;;;;;;;11.03;100.00;100992.81;1823101;77;21304;-76
2021/11/04 19:39:03;;;;;;;66.82;39.15;;;;;;;11.09;100.00;100997.62;1819188;77;21573;-76
2021/11/04 19:42:08;;;;;;;55.28;32.55;;;;;;;11.13;100.00;100999.02;1824494;78;21284;-76
2021/11/04 19:45:17;;;;;;;67.40;37.40;;;;;;;11.17;100.00;101000.42;1822873;77;21272;-76
2021/11/04 19:48:22;;;;;;;69.80;36.63;;;;;;;11.22;100.00;101000.78;1821568;77;21331;-76
2021/11/04 19:51:28;;;;;;;69.32;35.55;;;;;;;11.22;100.00;100988.46;1827553;78;21304;-76
2021/11/04 19:54:35;;;;;;;67.47;36.38;;;;;;;11.23;100.00;100994.27;1823168;77;21827;-76
2021/11/04 19:57:41;;;;;;;72.60;38.65;;;;;;;11.23;100.00;100999.23;1823738;78;21288;-76
2021/11/04 20:00:46;;;;;;;71.12;35.17;;;;;;;11.23;100.00;101004.72;1821337;77;21292;-76
2021/11/04 20:03:53;;;;;;;81.87;38.95;;;;;;;11.24;100.00;100997.35;1821647;77;21181;-76
2021/11/04 20:06:59;;;;;;;77.20;38.75;;;;;;;11.24;100.00;100993.25;1821044;77;21307;-76
2021/11/04 20:10:04;;;;;;;72.27;35.03;;;;;;;11.24;100.00;100987.77;1822606;77;21308;-76
2021/11/04 20:13:10;;;;;;;84.50;37.88;;;;;;;11.24;100.00;100986.40;1823729;78;21212;-76
2021/11/04 20:16:16;;;;;;;64.67;31.05;;;;;;;11.24;100.00;100980.92;1824478;78;21150;-76
2021/11/04 20:19:22;;;;;;;62.03;29.45;;;;;;;11.25;100.00;100984.89;1824102;78;21233;-76
2021/11/04 20:22:30;;;;;;;65.80;31.30;;;;;;;11.25;100.00;100968.97;1822935;77;21244;-76
2021/11/04 20:25:35;;;;;;;73.50;33.60;;;;;;;11.24;100.00;100972.22;1822421;77;21233;-76
2021/11/04 20:28:40;;;;;;;78.90;33.92;;;;;;;11.24;100.00;100964.49;1823145;78;21320;-76
2021/11/04 20:31:46;;;;;;;69.17;33.55;;;;;;;11.23;100.00;100959.53;1821541;77;21300;-76
2021/11/04 20:34:52;;;;;;;69.27;31.75;;;;;;;11.22;100.00;100953.72;1826722;78;21324;-76
2021/11/04 20:37:56;;;;;;;66.33;32.30;;;;;;;11.23;100.00;100950.46;1824882;77;21204;-76
2021/11/04 20:41:02;;;;;;;62.23;31.62;;;;;;;11.24;100.00;100957.16;1824322;77;21319;-76